sensor_id;sensor_type;location;lat;lon;timestamp;pressure;altitude;pressure_sealevel;temperature;humidity
7200;BME280;3641;49.082;8.200;2023-04-10T00:01:03;100931.78;;;8.35;57.28
7200;BME280;3641;49.082;8.200;2023-04-10T00:03:30;100933.34;;;8.19;58.32
7200;BME280;3641;49.082;8.200;2023-04-10T00:05:56;100929.53;;;8.30;56.98
7200;BME280;3641;49.082;8.200;2023-04-10T00:08:24;100929.16;;;8.43;56.92
7200;BME280;3641;49.082;8.200;2023-04-10T00:10:51;100922.13;;;8.41;56.53
7200;BME280;3641;49.082;8.200;2023-04-10T00:13:19;100929.06;;;8.17;56.84
7200;BME280;3641;49.082;8.200;2023-04-10T00:15:45;100934.94;;;7.76;59.51
7200;BME280;3641;49.082;8.200;2023-04-10T00:18:12;100935.25;;;7.91;58.77
7200;BME280;3641;49.082;8.200;2023-04-10T00:20:38;100939.91;;;7.81;59.25
7200;BME280;3641;49.082;8.200;2023-04-10T00:23:05;100936.34;;;7.80;60.52
7200;BME280;3641;49.082;8.200;2023-04-10T00:25:32;100931.63;;;8.00;58.15
7200;BME280;3641;49.082;8.200;2023-04-10T00:27:59;100926.41;;;8.07;57.42
7200;BME280;3641;49.082;8.200;2023-04-10T00:30:26;100925.03;;;7.85;60.68
7200;BME280;3641;49.082;8.200;2023-04-10T00:32:52;100923.63;;;7.53;62.35
7200;BME280;3641;49.082;8.200;2023-04-10T00:35:19;100928.19;;;7.53;61.87
7200;BME280;3641;49.082;8.200;2023-04-10T00:37:45;100925.88;;;7.86;59.66
7200;BME280;3641;49.082;8.200;2023-04-10T00:40:12;100930.50;;;7.48;61.67
7200;BME280;3641;49.082;8.200;2023-04-10T00:42:39;100923.44;;;7.64;59.58
7200;BME280;3641;49.082;8.200;2023-04-10T00:45:06;100924.63;;;7.52;60.20
7200;BME280;3641;49.082;8.200;2023-04-10T00:47:33;100922.66;;;7.72;59.03
7200;BME280;3641;49.082;8.200;2023-04-10T00:50:00;100927.88;;;7.84;58.04
7200;BME280;3641;49.082;8.200;2023-04-10T00:52:27;100933.41;;;7.92;57.21
7200;BME280;3641;49.082;8.200;2023-04-10T00:54:54;100928.81;;;7.92;57.75
7200;BME280;3641;49.082;8.200;2023-04-10T00:57:20;100927.47;;;7.78;58.28
7200;BME280;3641;49.082;8.200;2023-04-10T00:59:48;100916.88;;;7.85;58.90
7200;BME280;3641;49.082;8.200;2023-04-10T01:02:16;100924.13;;;7.67;57.85
7200;BME280;3641;49.082;8.200;2023-04-10T01:04:44;100928.09;;;7.72;58.98
7200;BME280;3641;49.082;8.200;2023-04-10T01:07:15;100921.56;;;7.65;59.12
7200;BME280;3641;49.082;8.200;2023-04-10T01:09:52;100918.84;;;7.37;61.08
7200;BME280;3641;49.082;8.200;2023-04-10T01:12:34;100925.25;;;7.64;58.07
7200;BME280;3641;49.082;8.200;2023-04-10T01:15:07;100924.56;;;7.62;59.67
7200;BME280;3641;49.082;8.200;2023-04-10T01:17:42;100926.66;;;7.50;60.76
7200;BME280;3641;49.082;8.200;2023-04-10T01:20:12;100922.06;;;7.51;61.68
7200;BME280;3641;49.082;8.200;2023-04-10T01:22:48;100929.22;;;7.52;59.37
7200;BME280;3641;49.082;8.200;2023-04-10T01:25:39;100932.22;;;7.49;58.66
7200;BME280;3641;49.082;8.200;2023-04-10T01:28:29;100929.81;;;7.45;59.29
7200;BME280;3641;49.082;8.200;2023-04-10T01:31:00;100935.19;;;7.27;59.22
7200;BME280;3641;49.082;8.200;2023-04-10T01:33:34;100925.06;;;7.20;59.17
7200;BME280;3641;49.082;8.200;2023-04-10T01:36:05;100928.84;;;7.37;58.54
7200;BME280;3641;49.082;8.200;2023-04-10T01:38:34;100926.72;;;7.31;60.76
7200;BME280;3641;49.082;8.200;2023-04-10T01:41:01;100937.56;;;7.40;58.95
7200;BME280;3641;49.082;8.200;2023-04-10T01:43:29;100929.88;;;7.36;58.47
7200;BME280;3641;49.082;8.200;2023-04-10T01:45:57;100925.38;;;7.17;60.80
7200;BME280;3641;49.082;8.200;2023-04-10T01:48:26;100928.38;;;7.14;60.35
7200;BME280;3641;49.082;8.200;2023-04-10T01:50:53;100916.59;;;6.85;62.97
7200;BME280;3641;49.082;8.200;2023-04-10T01:53:21;100915.00;;;7.02;61.25
7200;BME280;3641;49.082;8.200;2023-04-10T01:55:49;100909.78;;;6.81;62.19
7200;BME280;3641;49.082;8.200;2023-04-10T01:58:16;100902.63;;;6.80;62.06
7200;BME280;3641;49.082;8.200;2023-04-10T02:00:42;100905.09;;;6.73;62.40
7200;BME280;3641;49.082;8.200;2023-04-10T02:03:09;100909.47;;;6.84;61.54
7200;BME280;3641;49.082;8.200;2023-04-10T02:05:45;100898.13;;;6.99;59.48
7200;BME280;3641;49.082;8.200;2023-04-10T02:08:17;100901.16;;;6.96;59.74
7200;BME280;3641;49.082;8.200;2023-04-10T02:10:51;100901.38;;;6.65;65.35
7200;BME280;3641;49.082;8.200;2023-04-10T02:13:20;100898.09;;;6.71;62.63
7200;BME280;3641;49.082;8.200;2023-04-10T02:15:49;100893.50;;;6.71;61.74
7200;BME280;3641;49.082;8.200;2023-04-10T02:18:16;100893.03;;;6.96;61.47
7200;BME280;3641;49.082;8.200;2023-04-10T02:20:45;100893.19;;;6.94;62.48
7200;BME280;3641;49.082;8.200;2023-04-10T02:23:14;100897.91;;;6.82;61.41
7200;BME280;3641;49.082;8.200;2023-04-10T02:25:41;100898.72;;;7.02;59.76
7200;BME280;3641;49.082;8.200;2023-04-10T02:28:07;100897.03;;;6.91;60.45
7200;BME280;3641;49.082;8.200;2023-04-10T02:30:34;100899.00;;;6.99;60.05
7200;BME280;3641;49.082;8.200;2023-04-10T02:33:01;100897.97;;;7.00;64.14
7200;BME280;3641;49.082;8.200;2023-04-10T02:35:27;100894.81;;;6.67;64.89
7200;BME280;3641;49.082;8.200;2023-04-10T02:37:55;100904.66;;;6.59;65.33
7200;BME280;3641;49.082;8.200;2023-04-10T02:40:22;100897.38;;;6.69;62.76
7200;BME280;3641;49.082;8.200;2023-04-10T02:42:48;100899.28;;;6.39;66.06
7200;BME280;3641;49.082;8.200;2023-04-10T02:45:15;100896.50;;;6.78;62.23
7200;BME280;3641;49.082;8.200;2023-04-10T02:47:42;100894.59;;;6.88;61.46
7200;BME280;3641;49.082;8.200;2023-04-10T02:50:09;100891.34;;;6.85;63.34
7200;BME280;3641;49.082;8.200;2023-04-10T02:52:36;100892.63;;;6.81;63.15
7200;BME280;3641;49.082;8.200;2023-04-10T02:55:04;100889.59;;;6.94;62.18
7200;BME280;3641;49.082;8.200;2023-04-10T02:57:31;100887.78;;;6.75;62.90
7200;BME280;3641;49.082;8.200;2023-04-10T02:59:57;100890.19;;;6.78;62.75
7200;BME280;3641;49.082;8.200;2023-04-10T03:02:24;100885.03;;;6.37;66.51
7200;BME280;3641;49.082;8.200;2023-04-10T03:04:50;100887.50;;;6.78;61.08
7200;BME280;3641;49.082;8.200;2023-04-10T03:07:17;100883.28;;;6.46;66.17
7200;BME280;3641;49.082;8.200;2023-04-10T03:09:44;100888.75;;;6.16;67.75
7200;BME280;3641;49.082;8.200;2023-04-10T03:12:11;100884.97;;;6.57;63.37
7200;BME280;3641;49.082;8.200;2023-04-10T03:14:38;100873.75;;;6.42;63.32
7200;BME280;3641;49.082;8.200;2023-04-10T03:17:05;100866.56;;;6.50;63.57
7200;BME280;3641;49.082;8.200;2023-04-10T03:19:32;100875.88;;;6.48;61.94
7200;BME280;3641;49.082;8.200;2023-04-10T03:21:58;100867.41;;;6.51;62.82
7200;BME280;3641;49.082;8.200;2023-04-10T03:24:24;100862.03;;;6.31;64.45
7200;BME280;3641;49.082;8.200;2023-04-10T03:26:51;100851.69;;;6.64;60.87
7200;BME280;3641;49.082;8.200;2023-04-10T03:29:19;100855.56;;;6.62;63.34
7200;BME280;3641;49.082;8.200;2023-04-10T03:31:45;100846.28;;;6.64;61.30
7200;BME280;3641;49.082;8.200;2023-04-10T03:34:12;100849.34;;;6.42;62.60
7200;BME280;3641;49.082;8.200;2023-04-10T03:36:38;100849.00;;;6.64;60.52
7200;BME280;3641;49.082;8.200;2023-04-10T03:39:05;100853.97;;;6.69;60.80
7200;BME280;3641;49.082;8.200;2023-04-10T03:41:31;100849.78;;;6.08;66.54
7200;BME280;3641;49.082;8.200;2023-04-10T03:43:58;100850.06;;;5.85;67.15
7200;BME280;3641;49.082;8.200;2023-04-10T03:46:28;100853.78;;;5.84;67.55
7200;BME280;3641;49.082;8.200;2023-04-10T03:48:55;100850.50;;;6.20;63.90
7200;BME280;3641;49.082;8.200;2023-04-10T03:51:22;100845.94;;;6.10;64.43
7200;BME280;3641;49.082;8.200;2023-04-10T03:53:48;100848.34;;;5.94;66.61
7200;BME280;3641;49.082;8.200;2023-04-10T03:56:15;100842.47;;;5.59;69.27
7200;BME280;3641;49.082;8.200;2023-04-10T03:58:42;100848.47;;;5.53;69.32
7200;BME280;3641;49.082;8.200;2023-04-10T04:01:08;100850.06;;;5.95;64.60
7200;BME280;3641;49.082;8.200;2023-04-10T04:03:36;100850.53;;;6.00;64.61
7200;BME280;3641;49.082;8.200;2023-04-10T04:06:03;100845.66;;;6.23;63.79
7200;BME280;3641;49.082;8.200;2023-04-10T04:08:29;100842.78;;;6.34;62.04
7200;BME280;3641;49.082;8.200;2023-04-10T04:10:56;100845.66;;;6.23;63.74
7200;BME280;3641;49.082;8.200;2023-04-10T04:13:22;100844.22;;;6.09;65.54
7200;BME280;3641;49.082;8.200;2023-04-10T04:15:49;100839.97;;;5.97;66.07
7200;BME280;3641;49.082;8.200;2023-04-10T04:18:15;100847.25;;;6.16;62.93
7200;BME280;3641;49.082;8.200;2023-04-10T04:20:43;100847.53;;;6.03;65.92
7200;BME280;3641;49.082;8.200;2023-04-10T04:23:10;100837.81;;;5.71;67.77
7200;BME280;3641;49.082;8.200;2023-04-10T04:25:36;100841.78;;;5.77;64.99
7200;BME280;3641;49.082;8.200;2023-04-10T04:28:03;100838.94;;;6.08;63.34
7200;BME280;3641;49.082;8.200;2023-04-10T04:30:30;100834.97;;;5.82;65.02
7200;BME280;3641;49.082;8.200;2023-04-10T04:32:56;100845.06;;;5.90;64.02
7200;BME280;3641;49.082;8.200;2023-04-10T04:35:23;100845.19;;;5.79;66.68
7200;BME280;3641;49.082;8.200;2023-04-10T04:37:50;100842.47;;;5.59;66.78
7200;BME280;3641;49.082;8.200;2023-04-10T04:40:17;100853.78;;;5.94;65.67
7200;BME280;3641;49.082;8.200;2023-04-10T04:42:43;100849.63;;;5.70;65.92
7200;BME280;3641;49.082;8.200;2023-04-10T04:45:10;100854.19;;;5.89;65.13
7200;BME280;3641;49.082;8.200;2023-04-10T04:47:37;100852.19;;;5.91;64.33
7200;BME280;3641;49.082;8.200;2023-04-10T04:50:04;100858.88;;;5.77;65.90
7200;BME280;3641;49.082;8.200;2023-04-10T04:52:30;100851.91;;;5.85;66.47
7200;BME280;3641;49.082;8.200;2023-04-10T04:55:00;100860.88;;;5.66;65.14
7200;BME280;3641;49.082;8.200;2023-04-10T04:57:27;100865.00;;;5.60;66.46
7200;BME280;3641;49.082;8.200;2023-04-10T04:59:53;100870.59;;;5.78;66.23
7200;BME280;3641;49.082;8.200;2023-04-10T05:02:20;100867.56;;;5.61;69.01
7200;BME280;3641;49.082;8.200;2023-04-10T05:04:47;100877.13;;;5.56;66.55
7200;BME280;3641;49.082;8.200;2023-04-10T05:07:13;100879.06;;;5.44;67.57
7200;BME280;3641;49.082;8.200;2023-04-10T05:09:40;100876.44;;;5.63;67.69
7200;BME280;3641;49.082;8.200;2023-04-10T05:12:08;100873.25;;;5.58;66.13
7200;BME280;3641;49.082;8.200;2023-04-10T05:14:34;100872.28;;;5.69;64.75
7200;BME280;3641;49.082;8.200;2023-04-10T05:17:01;100868.28;;;5.54;68.31
7200;BME280;3641;49.082;8.200;2023-04-10T05:19:27;100856.91;;;5.79;65.29
7200;BME280;3641;49.082;8.200;2023-04-10T05:21:54;100851.91;;;5.85;66.07
7200;BME280;3641;49.082;8.200;2023-04-10T05:24:20;100854.91;;;5.81;67.21
7200;BME280;3641;49.082;8.200;2023-04-10T05:26:47;100853.09;;;6.02;63.95
7200;BME280;3641;49.082;8.200;2023-04-10T05:29:15;100856.50;;;6.04;63.75
7200;BME280;3641;49.082;8.200;2023-04-10T05:31:41;100858.66;;;6.10;62.85
7200;BME280;3641;49.082;8.200;2023-04-10T05:34:08;100856.09;;;6.08;62.99
7200;BME280;3641;49.082;8.200;2023-04-10T05:36:34;100855.34;;;6.06;64.64
7200;BME280;3641;49.082;8.200;2023-04-10T05:39:01;100864.09;;;6.00;66.56
7200;BME280;3641;49.082;8.200;2023-04-10T05:41:28;100859.19;;;5.94;65.24
7200;BME280;3641;49.082;8.200;2023-04-10T05:43:54;100863.19;;;5.99;65.71
7200;BME280;3641;49.082;8.200;2023-04-10T05:46:22;100865.19;;;6.07;65.58
7200;BME280;3641;49.082;8.200;2023-04-10T05:48:49;100867.63;;;6.00;66.82
7200;BME280;3641;49.082;8.200;2023-04-10T05:51:16;100861.50;;;6.08;67.20
7200;BME280;3641;49.082;8.200;2023-04-10T05:53:42;100873.47;;;6.06;67.98
7200;BME280;3641;49.082;8.200;2023-04-10T05:56:08;100869.88;;;6.34;65.59
7200;BME280;3641;49.082;8.200;2023-04-10T05:58:35;100858.94;;;6.16;66.84
7200;BME280;3641;49.082;8.200;2023-04-10T06:01:01;100866.34;;;6.14;65.07
7200;BME280;3641;49.082;8.200;2023-04-10T06:03:29;100867.59;;;6.30;65.34
7200;BME280;3641;49.082;8.200;2023-04-10T06:05:56;100860.06;;;6.33;65.68
7200;BME280;3641;49.082;8.200;2023-04-10T06:08:22;100860.06;;;6.33;66.13
7200;BME280;3641;49.082;8.200;2023-04-10T06:10:49;100868.72;;;6.47;66.35
7200;BME280;3641;49.082;8.200;2023-04-10T06:13:15;100862.91;;;6.32;67.80
7200;BME280;3641;49.082;8.200;2023-04-10T06:15:42;100863.31;;;6.37;68.44
7200;BME280;3641;49.082;8.200;2023-04-10T06:18:09;100857.03;;;6.36;69.05
7200;BME280;3641;49.082;8.200;2023-04-10T06:20:37;100860.63;;;6.37;68.56
7200;BME280;3641;49.082;8.200;2023-04-10T06:23:03;100859.69;;;6.66;65.49
7200;BME280;3641;49.082;8.200;2023-04-10T06:25:30;100855.38;;;6.73;63.91
7200;BME280;3641;49.082;8.200;2023-04-10T06:27:57;100852.06;;;6.79;64.56
7200;BME280;3641;49.082;8.200;2023-04-10T06:30:23;100850.81;;;6.73;67.13
7200;BME280;3641;49.082;8.200;2023-04-10T06:32:50;100857.78;;;6.76;66.39
7200;BME280;3641;49.082;8.200;2023-04-10T06:35:16;100858.03;;;6.83;66.32
7200;BME280;3641;49.082;8.200;2023-04-10T06:37:44;100857.56;;;6.97;64.54
7200;BME280;3641;49.082;8.200;2023-04-10T06:40:12;100854.53;;;7.10;63.98
7200;BME280;3641;49.082;8.200;2023-04-10T06:42:39;100857.69;;;7.05;65.34
7200;BME280;3641;49.082;8.200;2023-04-10T06:45:07;100854.94;;;7.15;65.72
7200;BME280;3641;49.082;8.200;2023-04-10T06:47:33;100852.72;;;7.28;64.43
7200;BME280;3641;49.082;8.200;2023-04-10T06:50:00;100849.84;;;7.30;64.64
7200;BME280;3641;49.082;8.200;2023-04-10T06:52:26;100842.75;;;7.47;63.83
7200;BME280;3641;49.082;8.200;2023-04-10T06:54:54;100841.41;;;7.51;64.54
7200;BME280;3641;49.082;8.200;2023-04-10T06:57:20;100838.31;;;7.64;62.20
7200;BME280;3641;49.082;8.200;2023-04-10T06:59:47;100841.44;;;7.69;62.37
7200;BME280;3641;49.082;8.200;2023-04-10T07:02:14;100841.31;;;7.71;62.67
7200;BME280;3641;49.082;8.200;2023-04-10T07:04:41;100842.22;;;7.79;61.86
7200;BME280;3641;49.082;8.200;2023-04-10T07:07:07;100846.72;;;7.89;61.67
7200;BME280;3641;49.082;8.200;2023-04-10T07:09:36;100842.94;;;7.99;61.15
7200;BME280;3641;49.082;8.200;2023-04-10T07:12:04;100836.31;;;8.02;61.31
7200;BME280;3641;49.082;8.200;2023-04-10T07:14:31;100843.00;;;8.08;60.99
7200;BME280;3641;49.082;8.200;2023-04-10T07:16:58;100841.34;;;8.15;60.10
7200;BME280;3641;49.082;8.200;2023-04-10T07:19:25;100834.13;;;8.24;60.08
7200;BME280;3641;49.082;8.200;2023-04-10T07:21:51;100832.13;;;8.34;59.65
7200;BME280;3641;49.082;8.200;2023-04-10T07:24:18;100834.69;;;8.35;59.60
7200;BME280;3641;49.082;8.200;2023-04-10T07:26:44;100835.50;;;8.46;59.15
7200;BME280;3641;49.082;8.200;2023-04-10T07:29:12;100830.75;;;8.48;58.77
7200;BME280;3641;49.082;8.200;2023-04-10T07:31:39;100828.75;;;8.58;58.66
7200;BME280;3641;49.082;8.200;2023-04-10T07:34:06;100830.84;;;8.64;57.67
7200;BME280;3641;49.082;8.200;2023-04-10T07:36:33;100828.31;;;8.71;57.04
7200;BME280;3641;49.082;8.200;2023-04-10T07:38:59;100825.00;;;8.85;56.63
7200;BME280;3641;49.082;8.200;2023-04-10T07:41:26;100831.03;;;8.97;56.94
7200;BME280;3641;49.082;8.200;2023-04-10T07:43:52;100825.75;;;8.96;56.43
7200;BME280;3641;49.082;8.200;2023-04-10T07:46:20;100821.81;;;8.98;56.49
7200;BME280;3641;49.082;8.200;2023-04-10T07:48:47;100818.84;;;9.09;56.02
7200;BME280;3641;49.082;8.200;2023-04-10T07:51:14;100822.59;;;9.17;55.99
7200;BME280;3641;49.082;8.200;2023-04-10T07:53:40;100823.09;;;9.20;55.01
7200;BME280;3641;49.082;8.200;2023-04-10T07:56:13;100817.34;;;9.32;54.44
7200;BME280;3641;49.082;8.200;2023-04-10T07:58:40;100823.53;;;9.42;53.51
7200;BME280;3641;49.082;8.200;2023-04-10T08:01:06;100811.09;;;9.39;52.50
7200;BME280;3641;49.082;8.200;2023-04-10T08:03:38;100812.66;;;9.50;51.56
7200;BME280;3641;49.082;8.200;2023-04-10T08:06:06;100808.09;;;9.59;52.12
7200;BME280;3641;49.082;8.200;2023-04-10T08:08:33;100812.84;;;9.65;52.21
7200;BME280;3641;49.082;8.200;2023-04-10T08:11:00;100815.94;;;9.78;51.19
7200;BME280;3641;49.082;8.200;2023-04-10T08:13:27;100811.00;;;9.90;51.36
7200;BME280;3641;49.082;8.200;2023-04-10T08:15:53;100810.66;;;9.93;52.49
7200;BME280;3641;49.082;8.200;2023-04-10T08:18:20;100805.38;;;10.00;52.71
7200;BME280;3641;49.082;8.200;2023-04-10T08:20:47;100803.69;;;10.07;50.89
7200;BME280;3641;49.082;8.200;2023-04-10T08:23:14;100801.97;;;10.14;50.51
7200;BME280;3641;49.082;8.200;2023-04-10T08:25:40;100800.78;;;10.17;50.72
7200;BME280;3641;49.082;8.200;2023-04-10T08:28:07;100809.63;;;10.19;50.27
7200;BME280;3641;49.082;8.200;2023-04-10T08:30:33;100809.97;;;10.24;50.55
7200;BME280;3641;49.082;8.200;2023-04-10T08:33:00;100810.16;;;10.47;50.02
7200;BME280;3641;49.082;8.200;2023-04-10T08:35:26;100808.63;;;10.53;48.61
7200;BME280;3641;49.082;8.200;2023-04-10T08:37:54;100811.50;;;10.60;47.88
7200;BME280;3641;49.082;8.200;2023-04-10T08:40:20;100813.53;;;10.58;48.35
7200;BME280;3641;49.082;8.200;2023-04-10T08:42:47;100808.09;;;10.49;47.31
7200;BME280;3641;49.082;8.200;2023-04-10T08:45:13;100805.34;;;10.66;47.72
7200;BME280;3641;49.082;8.200;2023-04-10T08:47:42;100813.25;;;11.00;47.05
7200;BME280;3641;49.082;8.200;2023-04-10T08:50:10;100812.34;;;11.08;45.56
7200;BME280;3641;49.082;8.200;2023-04-10T08:52:42;100802.66;;;10.97;45.93
7200;BME280;3641;49.082;8.200;2023-04-10T08:55:12;100800.47;;;10.93;46.82
7200;BME280;3641;49.082;8.200;2023-04-10T08:57:40;100792.59;;;10.98;45.44
7200;BME280;3641;49.082;8.200;2023-04-10T09:00:07;100796.75;;;11.17;44.50
7200;BME280;3641;49.082;8.200;2023-04-10T09:02:37;100789.88;;;11.29;45.61
7200;BME280;3641;49.082;8.200;2023-04-10T09:05:05;100776.97;;;11.46;45.36
7200;BME280;3641;49.082;8.200;2023-04-10T09:07:35;100778.47;;;11.49;45.50
7200;BME280;3641;49.082;8.200;2023-04-10T09:10:02;100772.41;;;11.61;44.77
7200;BME280;3641;49.082;8.200;2023-04-10T09:12:42;100774.38;;;11.76;42.20
7200;BME280;3641;49.082;8.200;2023-04-10T09:15:09;100764.59;;;11.81;42.17
7200;BME280;3641;49.082;8.200;2023-04-10T09:17:35;100755.03;;;11.77;43.38
7200;BME280;3641;49.082;8.200;2023-04-10T09:20:02;100766.38;;;11.74;43.18
7200;BME280;3641;49.082;8.200;2023-04-10T09:22:45;100755.72;;;11.79;43.49
7200;BME280;3641;49.082;8.200;2023-04-10T09:25:28;100749.50;;;12.09;41.17
7200;BME280;3641;49.082;8.200;2023-04-10T09:28:00;100749.97;;;12.12;41.41
7200;BME280;3641;49.082;8.200;2023-04-10T09:30:34;100747.28;;;12.42;41.21
7200;BME280;3641;49.082;8.200;2023-04-10T09:33:01;100742.72;;;12.20;42.21
7200;BME280;3641;49.082;8.200;2023-04-10T09:35:37;100736.72;;;12.54;40.60
7200;BME280;3641;49.082;8.200;2023-04-10T09:38:13;100734.28;;;12.59;40.47
7200;BME280;3641;49.082;8.200;2023-04-10T09:40:41;100732.72;;;12.71;38.02
7200;BME280;3641;49.082;8.200;2023-04-10T09:43:17;100734.09;;;12.61;42.02
7200;BME280;3641;49.082;8.200;2023-04-10T09:45:49;100726.72;;;12.61;40.50
7200;BME280;3641;49.082;8.200;2023-04-10T09:48:17;100720.19;;;12.62;41.63
7200;BME280;3641;49.082;8.200;2023-04-10T09:50:44;100721.97;;;12.70;43.49
7200;BME280;3641;49.082;8.200;2023-04-10T09:53:12;100715.91;;;12.89;39.41
7200;BME280;3641;49.082;8.200;2023-04-10T09:55:39;100707.31;;;12.78;38.61
7200;BME280;3641;49.082;8.200;2023-04-10T09:58:06;100707.50;;;12.91;41.39
7200;BME280;3641;49.082;8.200;2023-04-10T10:00:39;100697.25;;;13.15;39.63
7200;BME280;3641;49.082;8.200;2023-04-10T10:03:08;100701.63;;;13.31;37.59
7200;BME280;3641;49.082;8.200;2023-04-10T10:05:38;100699.56;;;13.33;37.19
7200;BME280;3641;49.082;8.200;2023-04-10T10:08:06;100692.78;;;13.50;38.57
7200;BME280;3641;49.082;8.200;2023-04-10T10:10:32;100691.13;;;13.56;38.50
7200;BME280;3641;49.082;8.200;2023-04-10T10:13:00;100689.44;;;13.76;37.95
7200;BME280;3641;49.082;8.200;2023-04-10T10:15:33;100685.50;;;13.86;38.74
7200;BME280;3641;49.082;8.200;2023-04-10T10:18:03;100694.94;;;14.05;37.16
7200;BME280;3641;49.082;8.200;2023-04-10T10:20:33;100688.69;;;14.17;38.41
7200;BME280;3641;49.082;8.200;2023-04-10T10:23:01;100678.81;;;14.23;35.78
7200;BME280;3641;49.082;8.200;2023-04-10T10:25:28;100678.34;;;14.54;34.52
7200;BME280;3641;49.082;8.200;2023-04-10T10:27:58;100674.56;;;14.56;36.79
7200;BME280;3641;49.082;8.200;2023-04-10T10:30:28;100670.06;;;14.83;35.00
7200;BME280;3641;49.082;8.200;2023-04-10T10:32:57;100663.56;;;14.97;35.76
7200;BME280;3641;49.082;8.200;2023-04-10T10:35:25;100663.94;;;14.87;37.27
7200;BME280;3641;49.082;8.200;2023-04-10T10:37:52;100658.28;;;15.02;37.20
7200;BME280;3641;49.082;8.200;2023-04-10T10:40:23;100644.00;;;15.60;33.88
7200;BME280;3641;49.082;8.200;2023-04-10T10:42:55;100648.84;;;15.45;38.85
7200;BME280;3641;49.082;8.200;2023-04-10T10:45:25;100642.50;;;15.65;33.75
7200;BME280;3641;49.082;8.200;2023-04-10T10:47:56;100633.41;;;16.04;32.22
7200;BME280;3641;49.082;8.200;2023-04-10T10:50:22;100637.84;;;15.98;32.39
7200;BME280;3641;49.082;8.200;2023-04-10T10:52:51;100638.06;;;16.04;33.05
7200;BME280;3641;49.082;8.200;2023-04-10T10:55:27;100621.53;;;15.97;31.34
7200;BME280;3641;49.082;8.200;2023-04-10T10:57:57;100632.56;;;15.84;37.02
7200;BME280;3641;49.082;8.200;2023-04-10T11:00:24;100635.31;;;15.90;35.38
7200;BME280;3641;49.082;8.200;2023-04-10T11:03:25;100636.56;;;15.74;35.98
7200;BME280;3641;49.082;8.200;2023-04-10T11:05:54;100625.16;;;15.91;34.32
7200;BME280;3641;49.082;8.200;2023-04-10T11:08:44;100628.50;;;16.06;38.49
7200;BME280;3641;49.082;8.200;2023-04-10T11:11:13;100622.09;;;16.32;34.59
7200;BME280;3641;49.082;8.200;2023-04-10T11:16:40;100621.56;;;16.62;34.28
7200;BME280;3641;49.082;8.200;2023-04-10T11:19:08;100612.28;;;16.50;38.36
7200;BME280;3641;49.082;8.200;2023-04-10T11:22:00;100603.00;;;16.38;37.43
7200;BME280;3641;49.082;8.200;2023-04-10T11:24:56;100597.31;;;16.32;34.44
7200;BME280;3641;49.082;8.200;2023-04-10T11:27:47;100597.97;;;16.73;33.32
7200;BME280;3641;49.082;8.200;2023-04-10T11:30:27;100609.78;;;16.35;37.89
7200;BME280;3641;49.082;8.200;2023-04-10T11:32:54;100601.53;;;16.35;37.12
7200;BME280;3641;49.082;8.200;2023-04-10T11:35:21;100588.03;;;16.20;35.79
7200;BME280;3641;49.082;8.200;2023-04-10T11:37:47;100588.59;;;16.42;36.31
7200;BME280;3641;49.082;8.200;2023-04-10T11:40:15;100583.66;;;16.51;38.89
7200;BME280;3641;49.082;8.200;2023-04-10T11:42:41;100578.31;;;16.63;35.11
7200;BME280;3641;49.082;8.200;2023-04-10T11:45:25;100580.78;;;16.32;39.02
7200;BME280;3641;49.082;8.200;2023-04-10T11:47:52;100581.13;;;16.56;35.55
7200;BME280;3641;49.082;8.200;2023-04-10T11:50:19;100581.56;;;16.53;35.85
7200;BME280;3641;49.082;8.200;2023-04-10T11:52:46;100572.63;;;16.51;35.68
7200;BME280;3641;49.082;8.200;2023-04-10T11:55:14;100567.13;;;16.51;36.64
7200;BME280;3641;49.082;8.200;2023-04-10T11:57:41;100568.34;;;16.62;36.34
7200;BME280;3641;49.082;8.200;2023-04-10T12:00:09;100559.28;;;16.55;36.10
7200;BME280;3641;49.082;8.200;2023-04-10T12:02:49;100556.31;;;16.49;35.67
7200;BME280;3641;49.082;8.200;2023-04-10T12:05:16;100554.03;;;16.78;38.99
7200;BME280;3641;49.082;8.200;2023-04-10T12:07:43;100546.34;;;16.94;37.74
7200;BME280;3641;49.082;8.200;2023-04-10T12:10:09;100543.16;;;16.97;37.03
7200;BME280;3641;49.082;8.200;2023-04-10T12:12:37;100541.88;;;16.99;35.92
7200;BME280;3641;49.082;8.200;2023-04-10T12:15:26;100544.06;;;16.84;36.21
7200;BME280;3641;49.082;8.200;2023-04-10T12:17:53;100535.59;;;16.85;37.86
7200;BME280;3641;49.082;8.200;2023-04-10T12:20:20;100543.50;;;16.68;35.97
7200;BME280;3641;49.082;8.200;2023-04-10T12:22:51;100524.97;;;16.82;36.63
7200;BME280;3641;49.082;8.200;2023-04-10T12:25:19;100524.06;;;16.57;35.32
7200;BME280;3641;49.082;8.200;2023-04-10T12:27:48;100524.88;;;16.64;34.84
7200;BME280;3641;49.082;8.200;2023-04-10T12:30:16;100533.19;;;16.57;35.61
7200;BME280;3641;49.082;8.200;2023-04-10T12:32:50;100521.50;;;16.62;35.69
7200;BME280;3641;49.082;8.200;2023-04-10T12:35:17;100523.50;;;16.80;34.70
7200;BME280;3641;49.082;8.200;2023-04-10T12:37:47;100521.59;;;16.80;36.32
7200;BME280;3641;49.082;8.200;2023-04-10T12:40:14;100522.31;;;16.69;34.31
7200;BME280;3641;49.082;8.200;2023-04-10T12:42:42;100515.97;;;16.62;40.33
7200;BME280;3641;49.082;8.200;2023-04-10T12:45:10;100503.84;;;16.69;35.83
7200;BME280;3641;49.082;8.200;2023-04-10T12:47:43;100507.78;;;16.87;35.97
7200;BME280;3641;49.082;8.200;2023-04-10T12:50:13;100505.78;;;16.69;37.55
7200;BME280;3641;49.082;8.200;2023-04-10T12:52:41;100498.59;;;16.61;35.74
7200;BME280;3641;49.082;8.200;2023-04-10T12:55:10;100496.75;;;16.87;35.07
7200;BME280;3641;49.082;8.200;2023-04-10T12:57:37;100488.22;;;16.95;35.85
7200;BME280;3641;49.082;8.200;2023-04-10T13:00:05;100492.31;;;16.86;35.66
7200;BME280;3641;49.082;8.200;2023-04-10T13:02:35;100495.31;;;17.10;33.64
7200;BME280;3641;49.082;8.200;2023-04-10T13:05:01;100485.50;;;16.88;34.52
7200;BME280;3641;49.082;8.200;2023-04-10T13:07:28;100480.69;;;16.77;37.58
7200;BME280;3641;49.082;8.200;2023-04-10T13:09:54;100472.81;;;16.81;36.72
7200;BME280;3641;49.082;8.200;2023-04-10T13:12:21;100478.44;;;16.99;37.14
7200;BME280;3641;49.082;8.200;2023-04-10T13:14:48;100476.13;;;16.96;36.72
7200;BME280;3641;49.082;8.200;2023-04-10T13:17:14;100462.06;;;16.73;35.46
7200;BME280;3641;49.082;8.200;2023-04-10T13:19:42;100461.53;;;16.89;34.81
7200;BME280;3641;49.082;8.200;2023-04-10T13:22:09;100457.03;;;16.95;34.63
7200;BME280;3641;49.082;8.200;2023-04-10T13:24:35;100454.50;;;16.93;33.46
7200;BME280;3641;49.082;8.200;2023-04-10T13:27:02;100457.28;;;16.93;35.43